MST,Max TemperatureF,Mean TemperatureF,Min TemperatureF,Max Dew PointF,MeanDew PointF,Min DewpointF,Max Humidity, Mean Humidity, Min Humidity, Max Sea Level PressureIn, Mean Sea Level PressureIn, Min Sea Level PressureIn, Max VisibilityMiles, Mean VisibilityMiles, Min VisibilityMiles, Max Wind SpeedMPH, Mean Wind SpeedMPH, Max Gust SpeedMPH,PrecipitationIn, CloudCover, Events, WindDirDegrees
2012-12-1,32,26,21,21,19,16,100,76,60,30.33,30.29,30.23,10,10,10,31,21,39,0.00,0,,218
2012-12-2,32,26,21,21,18,12,100,75,51,30.32,30.24,30.14,10,10,10,43,21,51,0.00,1,,221
2012-12-3,30,24,19,25,21,14,100,87,64,30.34,30.22,30.12,10,8,0,29,15,36,0.08,6,Fog-Snow,222
2012-12-4,32,24,17,19,6,-6,100,43,24,30.52,30.46,30.35,10,10,10,18,8,21,0.00,0,,235
2012-12-5,33,30,26,23,18,12,69,61,51,30.50,30.36,30.22,10,10,10,25,13,32,0.00,1,,227
2012-12-6,30,26,21,21,16,12,100,73,55,30.22,30.11,30.05,10,10,7,24,18,31,0.00,4,Snow,222
2012-12-7,24,20,17,21,19,16,100,92,74,30.05,30.02,30.00,10,7,0,22,14,29,0.00,6,Fog-Snow,219
2012-12-8,17,14,12,18,14,10,100,94,86,29.99,29.91,29.86,10,6,0,30,22,43,0.00,7,Fog-Snow,222
2012-12-9,12,2,-9,10,1,-22,100,85,46,29.92,29.80,29.73,10,7,0,26,17,36,0.06,6,Snow,243
2012-12-10,15,5,-5,3,-3,-20,92,74,50,29.94,29.89,29.85,10,7,0,18,10,24,0.00,4,Snow,270
2012-12-11,14,7,0,3,-3,-8,85,69,45,30.01,29.93,29.84,10,10,1,25,10,30,0.00,1,Snow,266
2012-12-12,12,9,6,3,3,3,85,78,67,30.00,29.99,29.99,10,10,10,23,20,28,0.00,0,,220
2012-12-13,26,22,17,10,8,5,68,56,43,30.15,30.08,30.02,10,10,10,22,15,33,0.00,0,,217
2012-12-14,21,16,12,19,14,9,100,90,63,30.02,29.77,29.59,10,2,0,15,10,23,0.76,8,Snow,197
2012-12-15,12,11,10,10,9,9,92,90,85,29.85,29.85,29.84,,,,16,15,25,0.06,8,,230
2012-12-16,,,,,,,,,,,,,,,,,,,,,,
2012-12-17,,,,,,,,,,,,,,,,,,,,,,
2012-12-18,,,,,,,,,,,,,,,,,,,,,,
2012-12-19,6,0,-7,5,-4,-13,92,85,77,30.05,29.73,29.46,,,,24,15,43,0.47,8,,3
2012-12-20,19,10,0,10,-2,-17,85,54,31,30.38,30.28,30.06,,,,24,9,31,0.00,1,,235
2012-12-21,28,21,14,3,-7,-27,53,32,11,30.39,30.33,30.28,10,10,10,26,19,29,0.00,0,,224
2012-12-22,28,21,14,7,-14,-27,73,24,10,30.27,30.21,30.14,10,10,10,25,19,31,0.00,0,,224
2012-12-23,19,16,12,18,12,9,100,93,79,30.14,30.10,30.05,10,7,0,26,19,33,0.00,5,Snow,224
2012-12-24,12,10,8,10,9,5,92,91,85,30.03,29.78,29.62,10,5,0,31,19,39,0.04,8,Snow,221
2012-12-25,14,8,3,10,5,1,92,85,67,29.96,29.85,29.64,10,9,0,21,9,21,0.00,2,Fog-Snow,257
2012-12-26,14,10,5,5,2,-4,92,76,52,29.94,29.75,29.59,10,6,0,29,20,38,0.00,7,Snow,223
2012-12-27,6,4,1,3,1,0,92,89,85,29.69,29.61,29.57,3,1,0,26,18,40,0.16,8,Snow,221
2012-12-28,5,2,-2,3,-3,-6,92,85,78,30.02,29.82,29.69,10,5,1,13,9,18,0.00,5,Snow,236
2012-12-29,21,10,0,1,-10,-31,85,40,10,30.17,30.08,30.01,10,10,7,22,10,29,0.00,2,,224
2012-12-30,17,12,6,10,4,-6,92,72,56,30.01,29.91,29.78,10,8,0,18,11,24,0.03,7,Snow,212
2012-12-31,12,6,0,10,6,-4,92,90,85,29.82,29.73,29.68,10,1,0,21,13,30,0.15,8,Snow,218